METAR Data
IDs: Format: Raw Decoded Include TAF

Data at: 2316 UTC 29 May 2020

METAR for:KPEA (Pella Muni, IA, US)
Text:KPEA 292315Z AUTO 00000KT 10SM CLR 22/09 A3014 RMK AO2 T02170088
Temperature: 21.7°C ( 71°F)
Dewpoint: 8.8°C ( 48°F) [RH = 44%]
Pressure (altimeter):30.14 inches Hg (1020.7 mb)
Winds:calm
Visibility:10 or more sm (16+ km)
Ceiling:at least 12,000 feet AGL
Clouds:sky clear below 12,000 feet AGL
QC Flag:automated observation with no human augmentation